Time;durP1;ratioP1;P1;durP2;ratioP2;P2;SDS_P1;SDS_P2;PMS_P1;PMS_P2;Temp;Humidity;BMP_temperature;BMP_pressure;BME280_temperature;BME280_humidity;BME280_pressure;Samples;Min_cycle;Max_cycle;Signal;HPM_P1;HPM_P2
2021/09/08 00:00:45;;;;;;;27.23;17.50;;;16.00;99.90;;;;;;5048853;28;20493;-57
2021/09/08 00:03:11;;;;;;;26.63;17.08;;;16.00;99.90;;;;;;5056622;28;20869;-57
2021/09/08 00:05:37;;;;;;;27.38;17.48;;;16.00;99.90;;;;;;5057840;28;20929;-56
2021/09/08 00:08:03;;;;;;;23.63;16.13;;;16.00;99.90;;;;;;5062010;28;20413;-55
2021/09/08 00:10:30;;;;;;;23.40;16.75;;;15.90;99.90;;;;;;5057718;28;20391;-55
2021/09/08 00:12:55;;;;;;;25.38;16.92;;;15.90;99.90;;;;;;5061027;28;20823;-56
2021/09/08 00:15:21;;;;;;;24.70;17.20;;;15.80;99.90;;;;;;5061125;28;20390;-55
2021/09/08 00:17:47;;;;;;;28.27;18.20;;;15.80;99.90;;;;;;5058031;28;20403;-55
2021/09/08 00:20:15;;;;;;;29.98;18.50;;;15.70;99.90;;;;;;5068961;28;20380;-56
2021/09/08 00:22:40;;;;;;;25.33;17.30;;;15.60;99.90;;;;;;5068225;28;20383;-55
2021/09/08 00:25:08;;;;;;;24.88;17.35;;;15.60;99.90;;;;;;5068648;28;20847;-55
2021/09/08 00:27:34;;;;;;;25.15;17.95;;;15.60;99.90;;;;;;5067284;28;20476;-55
2021/09/08 00:29:59;;;;;;;27.92;18.40;;;15.70;99.90;;;;;;5068704;28;20490;-56
2021/09/08 00:32:25;;;;;;;25.75;17.92;;;15.70;99.90;;;;;;5071539;28;20376;-55
2021/09/08 00:34:51;;;;;;;25.50;17.30;;;15.70;99.90;;;;;;5075180;28;20774;-56
2021/09/08 00:37:16;;;;;;;26.00;17.60;;;15.70;99.90;;;;;;5074347;28;20411;-55
2021/09/08 00:39:42;;;;;;;29.13;18.13;;;15.60;99.90;;;;;;5073137;28;20383;-56
2021/09/08 00:42:13;;;;;;;29.37;18.80;;;15.60;99.90;;;;;;5073932;28;20368;-55
2021/09/08 00:44:39;;;;;;;26.98;19.20;;;15.60;99.90;;;;;;5074065;28;20892;-56
2021/09/08 00:47:05;;;;;;;27.90;18.98;;;15.70;99.90;;;;;;5074777;28;20395;-55
2021/09/08 00:49:31;;;;;;;28.92;18.60;;;15.60;99.90;;;;;;5073814;28;20908;-56
2021/09/08 00:52:03;;;;;;;30.50;19.17;;;15.60;99.90;;;;;;5074985;28;20384;-55
2021/09/08 00:54:29;;;;;;;27.88;18.25;;;15.60;99.90;;;;;;5073165;28;20462;-56
2021/09/08 00:56:57;;;;;;;27.65;18.95;;;15.70;99.90;;;;;;5075267;28;20456;-55
2021/09/08 00:59:23;;;;;;;26.23;18.13;;;15.70;99.90;;;;;;5074778;28;20898;-56
2021/09/08 01:01:49;;;;;;;25.92;17.73;;;15.80;99.90;;;;;;5073862;28;20379;-55
2021/09/08 01:04:15;;;;;;;25.83;18.07;;;15.80;99.90;;;;;;5075224;28;20380;-56
2021/09/08 01:06:41;;;;;;;28.40;19.10;;;15.70;99.90;;;;;;5074037;28;20463;-56
2021/09/08 01:09:08;;;;;;;27.45;18.30;;;15.60;99.90;;;;;;5074598;28;20900;-55
2021/09/08 01:11:34;;;;;;;32.75;19.23;;;15.50;99.90;;;;;;5074150;28;20384;-55
2021/09/08 01:14:00;;;;;;;28.60;18.85;;;15.30;99.90;;;;;;5074815;28;20744;-55
2021/09/08 01:16:26;;;;;;;28.10;18.25;;;15.20;99.90;;;;;;5067959;28;20480;-55
2021/09/08 01:18:52;;;;;;;26.95;19.00;;;15.20;99.90;;;;;;5074651;28;20391;-55
2021/09/08 01:21:18;;;;;;;26.20;17.73;;;15.30;99.90;;;;;;5075162;28;20376;-55
2021/09/08 01:23:44;;;;;;;26.77;17.90;;;15.20;99.90;;;;;;5073896;28;20380;-55
2021/09/08 01:26:10;;;;;;;25.60;18.05;;;15.30;99.90;;;;;;5074738;28;20462;-55
2021/09/08 01:28:36;;;;;;;26.30;17.30;;;15.20;99.90;;;;;;5073984;28;20399;-55
2021/09/08 01:31:03;;;;;;;24.90;17.88;;;15.10;99.90;;;;;;5074690;28;20547;-55
2021/09/08 01:33:28;;;;;;;28.20;17.73;;;15.10;99.90;;;;;;5074401;28;20402;-55
2021/09/08 01:35:54;;;;;;;26.42;18.38;;;15.10;99.90;;;;;;5063516;28;20843;-55
2021/09/08 01:38:20;;;;;;;28.17;18.50;;;15.10;99.90;;;;;;5055488;28;20381;-54
2021/09/08 01:40:46;;;;;;;28.63;18.08;;;15.10;99.90;;;;;;5054658;28;21172;-55
2021/09/08 01:43:12;;;;;;;28.67;16.70;;;15.10;99.90;;;;;;5054221;28;20405;-56
2021/09/08 01:45:39;;;;;;;27.23;18.05;;;15.20;99.90;;;;;;5050824;28;20436;-55
2021/09/08 01:48:05;;;;;;;25.63;17.30;;;15.30;99.90;;;;;;5052446;28;20413;-55
2021/09/08 01:50:32;;;;;;;29.27;19.30;;;15.40;99.90;;;;;;5051527;28;20381;-55
2021/09/08 01:52:58;;;;;;;27.48;18.95;;;15.50;99.90;;;;;;5052273;28;20458;-56
2021/09/08 01:55:23;;;;;;;27.60;18.70;;;15.40;99.90;;;;;;5051857;28;20469;-55
2021/09/08 01:57:49;;;;;;;27.10;18.42;;;15.40;99.90;;;;;;5051476;28;20451;-55
2021/09/08 02:00:15;;;;;;;27.03;18.20;;;15.30;99.90;;;;;;5052041;28;20382;-56
2021/09/08 02:02:41;;;;;;;25.35;18.20;;;15.30;99.90;;;;;;5051087;28;20799;-56
2021/09/08 02:05:08;;;;;;;25.77;18.15;;;15.20;99.90;;;;;;5051718;28;20465;-56
2021/09/08 02:07:33;;;;;;;28.20;18.23;;;15.20;99.90;;;;;;5051172;28;20393;-56
2021/09/08 02:09:59;;;;;;;26.47;18.50;;;15.10;99.90;;;;;;5052023;28;20385;-56
2021/09/08 02:12:24;;;;;;;27.25;17.85;;;15.10;99.90;;;;;;5051781;28;20721;-56
2021/09/08 02:14:50;;;;;;;25.10;18.50;;;15.00;99.90;;;;;;5050782;28;20464;-56
2021/09/08 02:17:16;;;;;;;28.27;19.03;;;15.00;99.90;;;;;;5051380;28;20412;-54
2021/09/08 02:19:41;;;;;;;27.48;18.85;;;15.00;99.90;;;;;;5051039;28;20468;-54
2021/09/08 02:22:07;;;;;;;26.45;17.92;;;15.00;99.90;;;;;;5051788;28;20384;-55
2021/09/08 02:24:33;;;;;;;26.80;18.70;;;15.00;99.90;;;;;;5050690;28;20390;-54
2021/09/08 02:26:59;;;;;;;26.70;18.17;;;14.90;99.90;;;;;;5051424;28;20843;-54
2021/09/08 02:29:24;;;;;;;25.97;18.47;;;14.80;99.90;;;;;;5051551;28;20899;-54
2021/09/08 02:31:50;;;;;;;27.70;18.50;;;14.80;99.90;;;;;;5050717;28;20498;-54
2021/09/08 02:34:16;;;;;;;25.17;18.10;;;14.70;99.90;;;;;;5070850;28;20381;-55
2021/09/08 02:36:41;;;;;;;31.37;19.30;;;14.70;99.90;;;;;;5069617;28;20384;-56
2021/09/08 02:39:07;;;;;;;30.20;19.92;;;14.60;99.90;;;;;;5070097;28;20869;-56
2021/09/08 02:41:34;;;;;;;28.93;18.53;;;14.50;99.90;;;;;;5069460;28;20399;-56
2021/09/08 02:43:59;;;;;;;26.98;18.63;;;14.60;99.90;;;;;;5070527;28;20378;-56
2021/09/08 02:46:25;;;;;;;28.90;19.38;;;14.60;99.90;;;;;;5070226;28;20387;-56
2021/09/08 02:48:51;;;;;;;28.40;19.30;;;14.60;99.90;;;;;;5051652;28;20934;-56
2021/09/08 02:51:17;;;;;;;28.40;19.40;;;14.50;99.90;;;;;;5051421;28;20465;-56
2021/09/08 02:53:42;;;;;;;28.80;18.70;;;14.50;99.90;;;;;;5067582;28;20380;-56
2021/09/08 02:56:08;;;;;;;27.98;18.20;;;14.50;99.90;;;;;;5069925;28;20380;-56
2021/09/08 02:58:34;;;;;;;27.40;18.73;;;14.40;99.90;;;;;;5052702;28;20381;-56
2021/09/08 03:01:00;;;;;;;27.20;18.33;;;14.40;99.90;;;;;;5050984;28;20373;-56
2021/09/08 03:03:26;;;;;;;28.33;18.58;;;14.40;99.90;;;;;;5050766;28;20712;-57
2021/09/08 03:05:52;;;;;;;29.60;19.40;;;14.40;99.90;;;;;;5050103;28;20421;-56
2021/09/08 03:08:18;;;;;;;30.15;18.40;;;14.30;99.90;;;;;;5050040;28;20409;-56
2021/09/08 03:10:44;;;;;;;29.13;18.97;;;14.30;99.90;;;;;;5049565;28;20379;-57
2021/09/08 03:13:12;;;;;;;28.85;18.80;;;14.20;99.90;;;;;;5050951;28;20386;-56
2021/09/08 03:15:38;;;;;;;26.90;18.15;;;14.20;99.90;;;;;;5049282;28;20864;-56
2021/09/08 03:18:05;;;;;;;25.70;17.52;;;14.20;99.90;;;;;;5050321;28;20412;-56
2021/09/08 03:20:30;;;;;;;28.53;18.73;;;14.20;99.90;;;;;;5050250;28;20393;-56
2021/09/08 03:22:58;;;;;;;27.08;18.27;;;14.20;99.90;;;;;;5050683;28;21039;-56
2021/09/08 03:25:25;;;;;;;28.85;18.25;;;14.20;99.90;;;;;;5050192;28;20382;-55
2021/09/08 03:27:51;;;;;;;26.33;18.52;;;14.10;99.90;;;;;;5049695;28;21008;-56
2021/09/08 03:30:17;;;;;;;27.20;18.70;;;14.00;99.90;;;;;;5049031;28;20408;-56
2021/09/08 03:32:42;;;;;;;28.35;18.45;;;14.00;99.90;;;;;;5049720;28;20398;-56
2021/09/08 03:35:08;;;;;;;27.70;17.80;;;14.00;99.90;;;;;;5069266;28;20376;-56
2021/09/08 03:37:34;;;;;;;29.67;18.45;;;14.00;99.90;;;;;;5068477;28;20368;-56
2021/09/08 03:40:00;;;;;;;29.13;18.90;;;14.00;99.90;;;;;;5069321;28;20383;-56
2021/09/08 03:42:26;;;;;;;28.92;19.17;;;13.90;99.90;;;;;;5069566;28;20864;-56
2021/09/08 03:44:52;;;;;;;29.83;19.20;;;13.90;99.90;;;;;;5068051;28;20916;-56
2021/09/08 03:47:18;;;;;;;29.50;18.38;;;13.90;99.90;;;;;;5068803;28;20433;-56
2021/09/08 03:49:45;;;;;;;26.70;18.00;;;13.80;99.90;;;;;;5068520;28;20408;-55
2021/09/08 03:52:15;;;;;;;30.10;19.70;;;13.70;99.90;;;;;;5049949;28;20472;-56
2021/09/08 03:54:40;;;;;;;29.42;18.73;;;13.60;99.90;;;;;;5049141;28;20466;-56
2021/09/08 03:57:07;;;;;;;30.37;19.87;;;13.60;99.90;;;;;;5050348;28;20927;-56
2021/09/08 03:59:33;;;;;;;30.37;19.80;;;13.70;99.90;;;;;;5068339;28;20407;-56
2021/09/08 04:01:59;;;;;;;28.60;19.52;;;13.60;99.90;;;;;;5056205;28;20491;-56
2021/09/08 04:04:24;;;;;;;28.95;19.67;;;13.60;99.90;;;;;;5055322;28;20902;-56
2021/09/08 04:06:50;;;;;;;31.60;20.23;;;13.60;99.90;;;;;;5066518;28;20453;-56
2021/09/08 04:09:16;;;;;;;30.30;19.70;;;13.60;99.90;;;;;;5056493;28;20917;-56
2021/09/08 04:11:43;;;;;;;30.98;19.55;;;13.50;99.90;;;;;;5047946;28;20398;-56
2021/09/08 04:14:11;;;;;;;32.63;20.20;;;13.60;99.90;;;;;;5049405;28;20476;-56
2021/09/08 04:16:37;;;;;;;32.83;21.52;;;13.50;99.90;;;;;;5066689;28;20904;-55
2021/09/08 04:19:03;;;;;;;32.00;20.10;;;13.60;99.90;;;;;;5069506;28;20384;-56
2021/09/08 04:21:29;;;;;;;34.07;22.00;;;13.60;99.90;;;;;;5069271;28;20388;-56
2021/09/08 04:23:55;;;;;;;31.73;20.80;;;13.70;99.90;;;;;;5068801;28;20722;-56
2021/09/08 04:26:23;;;;;;;32.65;22.10;;;13.70;99.90;;;;;;5069482;28;20372;-55
2021/09/08 04:28:49;;;;;;;33.88;22.30;;;13.70;99.90;;;;;;5068466;28;20410;-55
2021/09/08 04:31:15;;;;;;;30.10;20.10;;;13.70;99.90;;;;;;5069228;28;20386;-56
2021/09/08 04:33:41;;;;;;;30.03;20.10;;;13.80;99.90;;;;;;5065818;28;20733;-56
2021/09/08 04:36:07;;;;;;;28.95;19.35;;;13.80;99.90;;;;;;5054938;28;20416;-56
2021/09/08 04:38:33;;;;;;;28.90;19.10;;;13.80;99.90;;;;;;5068570;28;20400;-57
2021/09/08 04:40:58;;;;;;;30.10;19.17;;;13.70;99.90;;;;;;5056638;28;20478;-56
2021/09/08 04:43:24;;;;;;;29.93;20.50;;;13.70;99.90;;;;;;5060986;28;20497;-57
2021/09/08 04:45:50;;;;;;;26.60;18.20;;;13.60;99.90;;;;;;5047782;28;20458;-56
2021/09/08 04:48:15;;;;;;;32.55;20.67;;;13.60;99.90;;;;;;5048485;28;20452;-56
2021/09/08 04:50:41;;;;;;;31.15;19.92;;;13.40;99.90;;;;;;5048416;28;20403;-56
2021/09/08 04:53:07;;;;;;;30.20;20.45;;;13.50;99.90;;;;;;5058051;28;20500;-56
2021/09/08 04:55:34;;;;;;;34.42;21.40;;;13.50;99.90;;;;;;5047986;28;20393;-56
2021/09/08 04:57:59;;;;;;;29.48;19.90;;;13.60;99.90;;;;;;5053690;28;20399;-56
2021/09/08 05:00:25;;;;;;;33.07;21.03;;;13.60;99.90;;;;;;5068381;28;20388;-56
2021/09/08 05:02:51;;;;;;;30.48;20.98;;;13.60;99.90;;;;;;5068062;28;20383;-56
2021/09/08 05:05:17;;;;;;;31.65;21.23;;;13.80;99.90;;;;;;5068667;28;20411;-56
2021/09/08 05:07:42;;;;;;;34.50;22.77;;;13.90;99.90;;;;;;5067881;28;20440;-56
2021/09/08 05:10:09;;;;;;;30.33;19.57;;;13.90;99.90;;;;;;5067026;28;20428;-56
2021/09/08 05:12:35;;;;;;;30.20;21.35;;;13.90;99.90;;;;;;5068291;28;20372;-56
2021/09/08 05:15:01;;;;;;;29.90;20.57;;;14.00;99.90;;;;;;5066369;28;20468;-56
2021/09/08 05:17:27;;;;;;;39.53;22.27;;;13.90;99.90;;;;;;5065746;28;20408;-56
2021/09/08 05:19:53;;;;;;;31.90;21.17;;;13.90;99.90;;;;;;5067024;28;20387;-56
2021/09/08 05:22:19;;;;;;;30.73;19.95;;;14.00;99.90;;;;;;5069650;28;20459;-56
2021/09/08 05:24:45;;;;;;;34.78;21.45;;;14.00;99.90;;;;;;5071657;28;20474;-56
2021/09/08 05:27:10;;;;;;;32.87;22.53;;;14.20;99.90;;;;;;5072417;28;20741;-56
2021/09/08 05:29:36;;;;;;;30.02;18.77;;;14.20;99.90;;;;;;5070020;28;20769;-56
2021/09/08 05:32:03;;;;;;;30.98;20.52;;;14.30;99.90;;;;;;5070021;28;20793;-56
2021/09/08 05:34:28;;;;;;;30.25;19.35;;;14.40;99.90;;;;;;5070167;28;20482;-56
2021/09/08 05:36:54;;;;;;;35.58;21.88;;;14.40;99.90;;;;;;5069805;28;20495;-56
2021/09/08 05:39:20;;;;;;;28.20;18.80;;;14.40;99.90;;;;;;5072213;28;21321;-56
2021/09/08 05:41:45;;;;;;;29.30;19.50;;;14.60;99.90;;;;;;5070865;28;20449;-56
2021/09/08 05:44:11;;;;;;;27.10;18.30;;;14.60;99.90;;;;;;5071596;28;20375;-56
2021/09/08 05:46:37;;;;;;;28.03;18.67;;;14.60;99.90;;;;;;5070243;28;20422;-56
2021/09/08 05:49:03;;;;;;;29.80;19.38;;;14.70;99.90;;;;;;5060999;28;20473;-56
2021/09/08 05:51:29;;;;;;;31.90;19.97;;;14.60;99.90;;;;;;5069288;28;20399;-55
2021/09/08 05:53:54;;;;;;;30.45;20.48;;;14.70;99.90;;;;;;5069519;28;20372;-55
2021/09/08 05:56:20;;;;;;;30.07;20.03;;;14.80;99.90;;;;;;5070344;28;20407;-55
2021/09/08 05:58:46;;;;;;;35.80;20.90;;;15.00;99.90;;;;;;5069436;28;20387;-56
2021/09/08 06:01:11;;;;;;;34.60;20.57;;;15.10;99.90;;;;;;5070514;28;20961;-55
2021/09/08 06:03:37;;;;;;;32.70;20.93;;;15.30;99.90;;;;;;5069546;28;20380;-56
2021/09/08 06:06:03;;;;;;;28.05;18.42;;;15.50;99.90;;;;;;5071135;28;20396;-55
2021/09/08 06:08:30;;;;;;;29.00;19.60;;;16.10;99.90;;;;;;5070809;28;20403;-56
2021/09/08 06:10:56;;;;;;;26.02;16.08;;;17.30;99.90;;;;;;5070007;28;20388;-56
2021/09/08 06:13:22;;;;;;;24.98;15.75;;;19.10;99.90;;;;;;5070974;28;20375;-54
2021/09/08 06:15:48;;;;;;;20.55;15.70;;;21.20;99.90;;;;;;5070005;28;20383;-57
2021/09/08 06:18:13;;;;;;;21.53;15.53;;;23.00;99.90;;;;;;5070702;28;20416;-57
2021/09/08 06:20:39;;;;;;;20.83;14.13;;;24.50;99.90;;;;;;5069709;28;20372;-56
2021/09/08 06:23:06;;;;;;;21.50;15.48;;;25.60;99.90;;;;;;5068741;28;20408;-55
2021/09/08 06:25:32;;;;;;;21.80;18.20;;;26.10;99.90;;;;;;5070380;28;20441;-56
2021/09/08 06:27:58;;;;;;;20.30;16.80;;;26.90;98.70;;;;;;5069694;28;20407;-57
2021/09/08 06:30:24;;;;;;;20.33;16.20;;;27.70;95.40;;;;;;5068893;28;20432;-56
2021/09/08 06:32:50;;;;;;;20.57;18.47;;;27.40;94.50;;;;;;5069595;28;20380;-56
2021/09/08 06:35:16;;;;;;;19.45;15.65;;;27.40;94.40;;;;;;5070524;28;20467;-56
2021/09/08 06:37:43;;;;;;;19.17;17.10;;;28.20;91.30;;;;;;5069182;28;20955;-57
2021/09/08 06:40:10;;;;;;;19.17;15.55;;;28.50;88.80;;;;;;5069956;28;20411;-56
2021/09/08 06:42:35;;;;;;;19.80;16.85;;;29.00;85.40;;;;;;5070194;28;20394;-56
2021/09/08 06:45:01;;;;;;;21.10;16.20;;;29.60;80.10;;;;;;5069558;28;20388;-57
2021/09/08 06:47:27;;;;;;;20.20;14.93;;;29.60;78.90;;;;;;5070669;28;20400;-58
2021/09/08 06:49:54;;;;;;;18.47;15.60;;;29.20;79.50;;;;;;5069388;28;20502;-57
2021/09/08 06:52:20;;;;;;;20.00;16.90;;;28.80;81.90;;;;;;5070106;28;20384;-57
2021/09/08 06:54:46;;;;;;;18.95;16.35;;;28.80;81.20;;;;;;5069265;28;20692;-57
2021/09/08 06:57:16;;;;;;;23.27;17.40;;;28.70;79.90;;;;;;5070122;28;20380;-57
2021/09/08 06:59:45;;;;;;;18.70;15.83;;;29.00;79.50;;;;;;5069022;28;20496;-57
2021/09/08 07:02:11;;;;;;;20.80;16.23;;;29.50;77.80;;;;;;5069767;28;20383;-58
2021/09/08 07:04:38;;;;;;;25.45;17.10;;;28.80;79.30;;;;;;5069776;28;20431;-57
2021/09/08 07:07:04;;;;;;;21.00;16.00;;;28.50;81.40;;;;;;5069303;28;20379;-57
2021/09/08 07:09:30;;;;;;;18.58;14.00;;;28.50;81.10;;;;;;5069628;28;20434;-57
2021/09/08 07:11:56;;;;;;;19.00;15.35;;;29.00;79.50;;;;;;5069177;28;20425;-57
2021/09/08 07:14:21;;;;;;;18.43;14.33;;;29.30;77.70;;;;;;5070543;28;20387;-57
2021/09/08 07:16:47;;;;;;;20.90;14.18;;;29.90;77.10;;;;;;5069161;28;20408;-57
2021/09/08 07:19:13;;;;;;;17.73;15.60;;;30.90;71.80;;;;;;5070339;28;20877;-58
2021/09/08 07:21:39;;;;;;;17.53;15.10;;;31.20;69.20;;;;;;5069441;28;20380;-58
2021/09/08 07:24:04;;;;;;;19.30;15.50;;;31.80;65.40;;;;;;5070327;28;20437;-58
2021/09/08 07:26:33;;;;;;;19.23;15.55;;;31.60;67.40;;;;;;5070424;28;20387;-56
2021/09/08 07:29:03;;;;;;;18.95;16.67;;;31.10;67.40;;;;;;5068484;28;20944;-57
2021/09/08 07:31:30;;;;;;;19.65;17.55;;;31.90;64.30;;;;;;5069544;28;20395;-58
2021/09/08 07:33:56;;;;;;;19.42;17.52;;;33.10;61.20;;;;;;5068885;28;20910;-58
2021/09/08 07:36:22;;;;;;;18.88;17.08;;;33.70;59.60;;;;;;5069577;28;20387;-59
2021/09/08 07:38:49;;;;;;;17.87;16.07;;;32.90;58.40;;;;;;5069222;28;20453;-58
2021/09/08 07:41:15;;;;;;;16.85;14.98;;;31.70;60.20;;;;;;5068808;28;20942;-57
2021/09/08 07:43:40;;;;;;;16.43;14.70;;;31.90;57.30;;;;;;5068599;28;20388;-58
2021/09/08 07:46:06;;;;;;;18.60;14.80;;;32.80;55.50;;;;;;5069466;28;20437;-57
2021/09/08 07:48:31;;;;;;;20.45;16.20;;;33.40;55.20;;;;;;5070376;28;20407;-57
2021/09/08 07:50:57;;;;;;;16.45;14.68;;;33.50;54.10;;;;;;5068701;28;20472;-57
2021/09/08 07:53:23;;;;;;;17.20;15.40;;;33.50;52.80;;;;;;5069524;28;20388;-57
2021/09/08 07:55:48;;;;;;;17.47;15.70;;;33.60;52.50;;;;;;5068981;28;20461;-58
2021/09/08 07:58:14;;;;;;;14.68;10.68;;;33.70;51.00;;;;;;5069116;28;20857;-58
2021/09/08 08:00:40;;;;;;;15.07;11.70;;;33.60;52.00;;;;;;5069143;28;20824;-56
2021/09/08 08:03:05;;;;;;;15.87;10.57;;;33.90;51.50;;;;;;5069144;28;20380;-58
2021/09/08 08:05:33;;;;;;;13.83;10.47;;;33.80;53.10;;;;;;5068373;28;20468;-57
2021/09/08 08:07:59;;;;;;;14.20;10.30;;;33.50;52.00;;;;;;5068022;28;20460;-57
2021/09/08 08:10:24;;;;;;;14.98;11.30;;;33.20;51.70;;;;;;5069523;28;20434;-57
2021/09/08 08:12:51;;;;;;;15.85;10.27;;;34.20;50.40;;;;;;5066983;28;20396;-57
2021/09/08 08:15:17;;;;;;;14.88;10.05;;;34.80;48.40;;;;;;5069015;28;20391;-58
2021/09/08 08:17:43;;;;;;;13.53;9.80;;;34.50;46.90;;;;;;5068449;28;20410;-57
2021/09/08 08:20:10;;;;;;;13.50;9.68;;;34.70;47.50;;;;;;5069008;28;20881;-57
2021/09/08 08:22:38;;;;;;;13.20;9.85;;;34.60;48.10;;;;;;5069167;28;20384;-57
2021/09/08 08:25:06;;;;;;;12.77;8.90;;;34.30;48.50;;;;;;5068577;28;20384;-57
2021/09/08 08:27:32;;;;;;;12.70;9.07;;;33.80;49.10;;;;;;5069305;28;20368;-57
2021/09/08 08:29:58;;;;;;;13.13;8.85;;;33.90;48.10;;;;;;5068352;28;20403;-57
2021/09/08 08:32:26;;;;;;;13.50;8.63;;;35.00;47.80;;;;;;5069116;28;20384;-57
2021/09/08 08:34:52;;;;;;;12.50;9.00;;;35.60;46.40;;;;;;5068260;28;20368;-58
2021/09/08 08:37:18;;;;;;;12.80;8.70;;;35.50;44.60;;;;;;5068651;28;20433;-58
2021/09/08 08:39:44;;;;;;;12.35;8.93;;;35.20;45.40;;;;;;5067900;28;20380;-58
2021/09/08 08:42:19;;;;;;;12.07;9.00;;;34.80;45.70;;;;;;5068189;28;20363;-57
2021/09/08 08:44:46;;;;;;;12.63;9.27;;;34.80;45.70;;;;;;5067506;28;20872;-56
2021/09/08 08:47:12;;;;;;;12.73;8.50;;;34.70;46.80;;;;;;5067560;28;20392;-56
2021/09/08 08:49:38;;;;;;;13.85;9.25;;;33.70;46.60;;;;;;5067759;28;20769;-57
2021/09/08 08:52:03;;;;;;;12.65;9.18;;;33.20;47.70;;;;;;5067945;28;20387;-54
2021/09/08 08:54:29;;;;;;;13.70;8.85;;;33.60;48.30;;;;;;5071869;28;20711;-55
2021/09/08 08:56:55;;;;;;;14.00;11.60;;;33.20;48.60;;;;;;5072113;28;20742;-54
2021/09/08 08:59:21;;;;;;;14.80;12.20;;;33.00;49.30;;;;;;5072496;28;20396;-54
2021/09/08 09:01:46;;;;;;;15.97;13.10;;;33.30;49.20;;;;;;5071885;28;20434;-55
2021/09/08 09:04:17;;;;;;;13.85;12.45;;;33.70;48.70;;;;;;5073157;28;20414;-54
2021/09/08 09:06:47;;;;;;;14.70;13.10;;;33.70;48.40;;;;;;5071857;28;20392;-57
2021/09/08 09:09:18;;;;;;;14.18;12.30;;;32.90;49.30;;;;;;5072098;28;20418;-55
2021/09/08 09:11:47;;;;;;;14.32;12.02;;;33.30;50.50;;;;;;5069142;28;20376;-55
2021/09/08 09:14:15;;;;;;;14.57;12.57;;;34.00;48.10;;;;;;5072384;28;20899;-55
2021/09/08 09:16:42;;;;;;;14.10;12.48;;;33.80;48.50;;;;;;5071477;28;20407;-56
2021/09/08 09:19:11;;;;;;;14.10;11.02;;;33.80;49.10;;;;;;5071901;28;20388;-55
2021/09/08 09:21:38;;;;;;;13.73;9.68;;;34.50;48.70;;;;;;5071334;28;20734;-55
2021/09/08 09:24:07;;;;;;;15.40;9.55;;;34.90;47.60;;;;;;5071691;28;20395;-57
2021/09/08 09:26:38;;;;;;;12.25;9.15;;;34.70;48.00;;;;;;5072594;28;20371;-55
2021/09/08 09:29:24;;;;;;;12.83;9.17;;;34.20;47.00;;;;;;5071819;28;21018;-55
2021/09/08 09:31:54;;;;;;;13.93;8.55;;;34.50;47.50;;;;;;5071447;28;20399;-54
2021/09/08 09:34:21;;;;;;;14.90;9.20;;;34.80;47.60;;;;;;5072754;28;20392;-57
2021/09/08 09:36:55;;;;;;;12.60;9.27;;;35.20;47.00;;;;;;5071277;28;20390;-57
2021/09/08 09:39:22;;;;;;;12.53;8.50;;;34.20;46.30;;;;;;5071984;28;20466;-58
2021/09/08 09:41:48;;;;;;;14.20;9.20;;;34.50;47.90;;;;;;5071558;28;20376;-58
2021/09/08 09:44:15;;;;;;;12.20;8.45;;;34.70;46.80;;;;;;5072148;28;20398;-56
2021/09/08 09:46:45;;;;;;;12.00;8.35;;;34.90;46.50;;;;;;5070371;28;20910;-57
2021/09/08 09:49:14;;;;;;;12.00;9.47;;;34.20;47.50;;;;;;5071944;28;20403;-56
2021/09/08 09:51:41;;;;;;;13.20;11.80;;;33.70;46.40;;;;;;5072161;28;20395;-57
2021/09/08 09:54:07;;;;;;;14.20;11.90;;;33.10;48.40;;;;;;5070928;28;20372;-56
2021/09/08 09:56:33;;;;;;;14.88;10.90;;;33.20;48.00;;;;;;5071945;28;20425;-56
2021/09/08 09:58:59;;;;;;;11.40;9.75;;;33.40;47.50;;;;;;5070358;28;20380;-56
2021/09/08 10:01:25;;;;;;;14.10;11.30;;;33.30;47.50;;;;;;5071033;28;20482;-56
2021/09/08 10:03:52;;;;;;;12.82;11.40;;;33.30;47.20;;;;;;5070360;28;20376;-56
2021/09/08 10:06:18;;;;;;;13.98;11.40;;;32.20;48.30;;;;;;5070272;28;20449;-56
2021/09/08 10:08:48;;;;;;;15.63;11.65;;;32.60;48.70;;;;;;5070582;28;20491;-57
2021/09/08 10:11:24;;;;;;;13.80;10.77;;;33.50;48.20;;;;;;5071271;28;20445;-57
2021/09/08 10:14:05;;;;;;;12.70;10.10;;;33.90;47.50;;;;;;5070836;28;20376;-56
2021/09/08 10:16:34;;;;;;;15.10;10.70;;;33.40;47.40;;;;;;5071495;28;20491;-55
2021/09/08 10:19:04;;;;;;;12.68;9.95;;;33.60;47.50;;;;;;5070436;28;20396;-56
2021/09/08 10:21:30;;;;;;;12.65;10.68;;;34.20;47.10;;;;;;5070443;28;20391;-56
2021/09/08 10:23:59;;;;;;;11.97;10.03;;;34.50;46.50;;;;;;5070054;28;20384;-56
2021/09/08 10:26:30;;;;;;;12.48;9.98;;;34.30;46.70;;;;;;5068496;28;20444;-56
2021/09/08 10:29:07;;;;;;;14.65;11.20;;;34.30;46.80;;;;;;5070088;28;20494;-56
2021/09/08 10:31:41;;;;;;;12.55;11.13;;;34.00;47.40;;;;;;5069471;28;20380;-56
2021/09/08 10:34:08;;;;;;;12.25;9.57;;;34.10;47.40;;;;;;5068394;28;20426;-56
2021/09/08 10:36:35;;;;;;;12.30;9.38;;;33.30;47.70;;;;;;5070507;28;20380;-56
2021/09/08 10:39:08;;;;;;;11.60;10.30;;;33.30;47.60;;;;;;5069180;28;21182;-56
2021/09/08 10:41:44;;;;;;;15.80;10.40;;;33.30;48.20;;;;;;5070910;28;20376;-56
2021/09/08 10:44:11;;;;;;;13.67;10.70;;;32.90;48.20;;;;;;5068847;28;20383;-57
2021/09/08 10:46:55;;;;;;;12.17;10.40;;;32.60;49.30;;;;;;5069077;28;20438;-56
2021/09/08 10:49:36;;;;;;;13.35;10.18;;;32.50;49.00;;;;;;5069817;28;20885;-57
2021/09/08 10:52:04;;;;;;;14.50;10.18;;;31.30;49.90;;;;;;5066650;28;20453;-56
2021/09/08 10:54:30;;;;;;;12.52;10.80;;;31.10;51.70;;;;;;5070310;28;20383;-56
2021/09/08 10:56:55;;;;;;;14.07;11.55;;;31.00;52.20;;;;;;5069064;28;20383;-56
2021/09/08 10:59:21;;;;;;;13.23;11.60;;;30.90;51.10;;;;;;5070155;28;20944;-56
2021/09/08 11:01:52;;;;;;;13.30;11.90;;;30.70;51.50;;;;;;5069364;28;20380;-56
2021/09/08 11:04:18;;;;;;;13.82;10.65;;;30.90;51.40;;;;;;5070082;28;20388;-56
2021/09/08 11:06:47;;;;;;;11.70;9.70;;;31.50;51.00;;;;;;5069926;28;20402;-58
2021/09/08 11:09:14;;;;;;;13.93;10.75;;;32.20;50.70;;;;;;5069418;28;20491;-56
2021/09/08 11:11:59;;;;;;;12.85;10.50;;;32.60;49.70;;;;;;5069764;28;20384;-57
2021/09/08 11:14:53;;;;;;;12.80;10.97;;;32.50;49.10;;;;;;5067318;28;20458;-56
2021/09/08 11:17:24;;;;;;;13.45;10.80;;;32.40;49.30;;;;;;5061442;28;20407;-56
2021/09/08 11:20:03;;;;;;;14.27;11.88;;;32.80;48.80;;;;;;5068558;28;20388;-57
2021/09/08 11:22:30;;;;;;;14.32;11.00;;;32.90;47.30;;;;;;5067977;28;20380;-56
2021/09/08 11:25:10;;;;;;;12.80;11.40;;;32.10;48.10;;;;;;5069054;28;20395;-56
2021/09/08 11:27:38;;;;;;;13.70;11.23;;;31.30;49.70;;;;;;5070145;28;20869;-56
2021/09/08 11:30:09;;;;;;;13.85;11.48;;;31.00;50.70;;;;;;5069058;28;20411;-56
2021/09/08 11:32:55;;;;;;;13.20;11.80;;;30.90;49.60;;;;;;5069972;28;20392;-56
2021/09/08 11:35:38;;;;;;;12.30;10.48;;;29.90;51.40;;;;;;5069961;28;20502;-56
2021/09/08 11:38:08;;;;;;;13.25;10.85;;;29.60;53.00;;;;;;5069298;28;20492;-56
2021/09/08 11:40:34;;;;;;;12.80;10.80;;;29.80;52.90;;;;;;5068513;28;20380;-56
2021/09/08 11:43:00;;;;;;;13.30;9.93;;;30.10;52.60;;;;;;5068583;28;20380;-56
2021/09/08 11:45:27;;;;;;;12.70;10.70;;;30.10;52.10;;;;;;5067081;28;20380;-57
2021/09/08 11:47:53;;;;;;;12.00;9.60;;;30.20;51.40;;;;;;5068658;28;20616;-56
2021/09/08 11:50:18;;;;;;;11.75;9.32;;;30.30;52.70;;;;;;5068803;28;20770;-56
2021/09/08 11:52:45;;;;;;;11.63;9.55;;;30.20;52.00;;;;;;5069092;28;20407;-57
2021/09/08 11:55:33;;;;;;;11.85;9.40;;;30.20;52.80;;;;;;5068468;28;20384;-56
2021/09/08 11:58:18;;;;;;;11.23;9.68;;;30.10;54.00;;;;;;5066147;28;20432;-56
2021/09/08 12:01:16;;;;;;;11.73;10.50;;;30.10;53.00;;;;;;5068977;28;20463;-57
2021/09/08 12:03:45;;;;;;;14.15;9.55;;;30.20;53.20;;;;;;5055927;28;20399;-57
2021/09/08 12:06:15;;;;;;;13.83;10.10;;;30.30;52.90;;;;;;5069360;28;20376;-56
2021/09/08 12:08:55;;;;;;;13.48;11.55;;;30.50;52.20;;;;;;5067687;28;20404;-56
2021/09/08 12:11:47;;;;;;;13.20;11.20;;;30.70;52.20;;;;;;5068697;28;20418;-56
2021/09/08 12:14:39;;;;;;;12.15;9.80;;;30.30;52.60;;;;;;5068242;28;20383;-56
2021/09/08 12:17:16;;;;;;;11.75;9.43;;;30.10;52.60;;;;;;5071162;28;20963;-56
2021/09/08 12:20:04;;;;;;;13.15;10.52;;;30.10;52.40;;;;;;5069648;28;20477;-56
2021/09/08 12:22:33;;;;;;;11.63;9.10;;;30.30;53.70;;;;;;5082422;28;20490;-56
2021/09/08 12:25:03;;;;;;;14.75;10.38;;;30.20;52.10;;;;;;5068376;28;20392;-56
2021/09/08 12:27:37;;;;;;;13.48;11.30;;;29.80;52.60;;;;;;5082847;28;20385;-57
2021/09/08 12:30:14;;;;;;;11.80;10.10;;;29.80;53.00;;;;;;5084894;28;20407;-56